Flight Track Log - Related Links

Times and Time Zones

All times are in EDT time to prevent confusion due to time zone crossing. See the UAL3595 flight status page for this flight to view local times or setup timezone preferences in your user account.

Time Position Orientation Groundspeed Altitude Reporting Facility
EDT Latitude Longitude Course Direction KTS MPH feet Rate Location/Type
Sat 10:27:30 AM 42.9333 -78.7333 228° Southwest 133 153 1,500  Level Buffalo TRACON
Sat 10:28:42 AM 42.9000 -78.7833 228° Southwest 156 180 3,000 1,375 Climbing Buffalo TRACON
Sat 10:29:54 AM 42.8500 -78.7833 180° South 174 200 4,800 1,418 Climbing Buffalo TRACON
Sat 10:30:32 AM 42.8111 -78.7861 183° South 171 197 5,600 1,347 Climbing Cleveland Center
Sat 10:31:32 AM 42.7714 -78.7786 172° South 200 230 7,000 1,450 Climbing Cleveland Center
Sat 10:32:32 AM 42.7128 -78.7719 175° South 200 230 8,500 1,250 Climbing Cleveland Center
Sat 10:33:32 AM 42.6583 -78.7622 173° South 200 230 9,500 900 Climbing Cleveland Center
Sat 10:34:32 AM 42.6019 -78.7497 171° South 200 230 10,300 800 Climbing Cleveland Center
Sat 10:35:32 AM 42.5433 -78.7261 163° South 206 237 11,100 550 Climbing Cleveland Center
Sat 10:36:32 AM 42.4781 -78.6942 160° South 231 266 11,400 850 Climbing Cleveland Center
Sat 10:37:32 AM 42.4150 -78.6653 161° South 243 280 12,800 1,300 Climbing Cleveland Center
Sat 10:38:32 AM 42.3564 -78.6389 162° South 238 274 14,000 1,150 Climbing Cleveland Center
Sat 10:39:32 AM 42.2975 -78.6125 162° South 231 266 15,100 1,050 Climbing Cleveland Center
Sat 10:40:32 AM 42.2386 -78.5864 162° South 226 260 16,100 950 Climbing Cleveland Center
Sat 10:41:32 AM 42.1797 -78.5600 162° South 226 260 17,000 450 Climbing Cleveland Center
Sat 10:42:32 AM 42.1125 -78.5314 162° South 239 275 17,000  Level Cleveland Center
Sat 10:43:32 AM 42.0433 -78.4972 160° South 258 297 17,000  Level Cleveland Center
Sat 10:44:32 AM 41.9717 -78.4633 161° South 265 305 17,000  Level Cleveland Center
Sat 10:45:32 AM 41.9003 -78.4294 161° South 265 305 17,000  Level Cleveland Center
Sat 10:46:32 AM 41.8267 -78.3986 163° South 265 305 17,000  Level Cleveland Center
Sat 10:47:32 AM 41.7553 -78.3675 162° South 265 305 17,000  Level Cleveland Center
Sat 10:48:32 AM 41.6836 -78.3339 161° South 265 305 17,000  Level Cleveland Center
Sat 10:49:32 AM 41.6100 -78.3031 163° South 265 305 17,000  Level Cleveland Center
Sat 10:50:32 AM 41.5383 -78.2667 159° South 270 311 17,000  Level Cleveland Center
Sat 10:51:32 AM 41.4650 -78.2361 163° South 270 311 17,000  Level Cleveland Center
Sat 10:52:32 AM 41.3933 -78.2056 162° South 270 311 17,000  Level Cleveland Center
Sat 10:53:32 AM 41.3197 -78.1722 161° South 270 311 17,000  Level Cleveland Center
Sat 10:54:32 AM 41.2503 -78.1389 160° South 270 311 17,000  Level Cleveland Center
Sat 10:55:47 AM 41.1658 -78.1028 162° South 266 306 17,000  Level New Center
Sat 10:56:47 AM 41.0950 -78.0678 160° South 271 312 17,000  Level New Center
Sat 10:57:47 AM 41.0217 -78.0378 163° South 276 318 17,000  Level New Center
Sat 10:58:47 AM 40.9486 -78.0053 161° South 276 318 17,000  Level New Center
Sat 10:59:47 AM 40.8800 -77.9706 159° South 276 318 17,000  Level New Center
Sat 11:00:47 AM 40.8117 -77.9278 155° Southeast 276 318 17,000  Level New Center
Sat 11:01:47 AM 40.7436 -77.8822 153° Southeast 276 318 17,000  Level New Center
Sat 11:02:47 AM 40.6753 -77.8394 155° Southeast 276 318 17,000  Level New Center
Sat 11:03:47 AM 40.6069 -77.7969 155° Southeast 276 318 17,000  Level New Center
Sat 11:04:47 AM 40.5386 -77.7544 155° Southeast 276 318 17,000  Level New Center
Sat 11:05:47 AM 40.4703 -77.7092 153° Southeast 276 318 17,000 -550 Level New Center
Sat 11:06:47 AM 40.3997 -77.6667 155° Southeast 276 318 15,900 -1,260 Descending New Center
Sat 11:09:07 AM 40.2167 -77.5500 154° Southeast 289 333 12,800 -1,290 Descending Potomac TRACON
Sat 11:10:07 AM 40.1500 -77.5167 159° South 289 333 11,600 -1,181 Descending Potomac TRACON
Sat 11:11:14 AM 40.0667 -77.4667 155° Southeast 287 330 10,300 -1,181 Descending Potomac TRACON
Sat 11:12:14 AM 40.0000 -77.4167 150° Southeast 279 321 9,100 -650 Descending Potomac TRACON
Sat 11:13:14 AM 39.9333 -77.3833 159° South 264 304 9,000 -50 Descending Potomac TRACON
Sat 11:14:14 AM 39.8667 -77.3333 150° Southeast 255 293 9,000 -450 Level Potomac TRACON
Sat 11:15:14 AM 39.8000 -77.3000 159° South 259 298 8,100 -496 Descending Potomac TRACON
Sat 11:16:15 AM 39.7333 -77.2667 159° South 261 300 8,000 -50 Descending Potomac TRACON
Sat 11:17:15 AM 39.6667 -77.2500 169° South 261 300 8,000  Level Potomac TRACON
Sat 11:18:15 AM 39.6333 -77.3333 243° Southwest 248 285 8,000  Level Potomac TRACON
Sat 11:19:10 AM 39.5833 -77.3500 194° South 239 275 8,000  Level Potomac TRACON
Sat 11:20:10 AM 39.5167 -77.3500 180° South 244 281 8,000 -350 Level Potomac TRACON
Sat 11:21:10 AM 39.4500 -77.3667 191° South 252 290 7,300 -496 Descending Potomac TRACON
Sat 11:22:11 AM 39.3667 -77.3667 180° South 260 299 7,000 -626 Descending Potomac TRACON
Sat 11:23:05 AM 39.3000 -77.3667 180° South 256 295 6,100 -1,043 Descending Potomac TRACON
Sat 11:24:06 AM 39.2333 -77.3667 180° South 258 297 5,000 -1,096 Descending Potomac TRACON
Sat 11:25:00 AM 39.1667 -77.3667 180° South 245 282 4,000 -526 Descending Potomac TRACON
Sat 11:26:00 AM 39.1000 -77.3500 169° South 237 273 4,000  Level Potomac TRACON
Sat 11:27:01 AM 39.0333 -77.3500 180° South 235 270 4,000 -397 Level Potomac TRACON
Sat 11:28:01 AM 38.9667 -77.3500 180° South 242 278 3,200 -526 Descending Potomac TRACON
Sat 11:28:55 AM 38.9000 -77.3500 180° South 232 267 3,000 -105 Descending Potomac TRACON
Sat 11:29:55 AM 38.8500 -77.3500 180° South 200 230 3,000 -50 Level Potomac TRACON
Sat 11:30:56 AM 38.8167 -77.3833 218° Southwest 197 227 2,900  Descending Potomac TRACON
Sat 11:31:56 AM 38.8333 -77.4333 293° West 192 221 3,000 -300 Climbing Potomac TRACON
Sat 11:32:56 AM 38.8667 -77.4333 360° North 158 182 2,300 -1,150 Descending Potomac TRACON
Sat 11:33:56 AM 38.9167 -77.4333 360° North 124 143 700 -1,600 Descending Potomac TRACON

Login

Don't have an account? Register now (free) for customized features, flight alerts, and more!